Terminal Aerodrome Forecast
Issued by NWS Shreveport, LA

Home | Current Version | Previous Version | Text Only | Print | Product List | Glossary On
Versions: 1 2 3 4 5 6 7 8 9 10 11 12 13 14 15 16 17 18 19 20 21 22 23 24 25 26 27
000
FTUS44 KSHV 242340
TAFLFK
TAF
KLFK 242340Z 2500/2524 17010KT P6SM VCTS FEW050CB OVC070
      TEMPO 2501/2505 VRB20G35KT 1SM +TSRA BR OVC015CB
     FM250500 35005KT 5SM BR VCTS OVC015CB
     FM250700 36004KT P6SM BKN035 OVC200
     FM251500 09006KT P6SM SCT050 BKN150
     FM251800 09007KT 5SM -SHRA BR OVC015=

USA.gov is the U.S. government's official web portal to all federal, state and local government web resources and services.